Flight Track Log - Related Links

Times and Time Zones

All times are in EDT time to prevent confusion due to time zone crossing. See the AWE1600 flight status page for this flight to view local times or setup timezone preferences in your user account.

Time Position Orientation Groundspeed Altitude Reporting Facility
EDT Latitude Longitude Course Direction KTS MPH feet Rate Location/Type
Thu 07:09:46 AM 41.9478 -72.6775 132° Southeast 163 188 1,000  Level Boston Center
Thu 07:10:28 AM 41.9500 -72.6272 87° East 185 213 2,600 2,533 Climbing Boston Center
Thu 07:11:16 AM 41.9083 -72.5881 145° Southeast 245 282 4,800 3,056 Climbing Boston Center
Thu 07:12:00 AM 41.7142 -72.5809 143° Southeast  Level FlightAware Approximate
Thu 07:12:16 AM 41.8458 -72.5544 158° South 245 282 8,100  Level Boston Center
Thu 07:13:00 AM 41.6444 -72.5388 160° South  Level FlightAware Approximate
Thu 07:13:16 AM 41.7753 -72.5125 156° South 268 308 10,100  Level Boston Center
Thu 07:14:00 AM 41.5886 -72.4662 132° Southeast  Level FlightAware Approximate
Thu 07:14:16 AM 41.7003 -72.4650 155° Southeast 280 322 13,400  Level Boston Center
Thu 07:15:16 AM 41.6292 -72.4233 156° South 280 322 16,800 2,750 Climbing Boston Center
Thu 07:16:16 AM 41.5542 -72.3792 156° South 285 328 18,900 1,600 Climbing Boston Center
Thu 07:17:16 AM 41.4750 -72.3542 167° South 296 341 20,000 1,250 Climbing Boston Center
Thu 07:18:16 AM 41.3958 -72.3461 176° South 291 335 21,400 1,000 Climbing Boston Center
Thu 07:19:16 AM 41.3125 -72.3433 179° South 291 335 22,000 300 Climbing Boston Center
Thu 07:20:16 AM 41.2333 -72.3408 179° South 306 352 22,000 750 Level Boston Center
Thu 07:21:16 AM 41.1417 -72.3325 176° South 316 364 23,500 1,250 Climbing Boston Center
Thu 07:22:16 AM 41.0456 -72.2806 158° South 342 394 24,500 1,200 Climbing Boston Center
Thu 07:23:16 AM 40.9414 -72.2478 167° South 366 421 25,900 750 Climbing Boston Center
Thu 07:24:16 AM 40.8603 -72.3247 216° Southwest 344 396 26,000 50 Climbing Boston Center
Thu 07:25:16 AM 40.7875 -72.4208 225° Southwest 342 394 26,000  Level Boston Center
Thu 07:26:16 AM 40.7164 -72.5139 225° Southwest 361 415 26,000 -426 Level Boston Center
Thu 07:27:51 AM 40.6156 -72.6631 228° Southwest 353 406 24,900 -846 Descending New York Center
Thu 07:28:52 AM 40.5514 -72.7514 226° Southwest 343 395 23,800 -1,091 Descending New York Center
Thu 07:29:52 AM 40.4939 -72.8342 228° Southwest 328 377 22,700 -1,525 Descending New York Center
Thu 07:30:50 AM 40.4361 -72.9144 227° Southwest 316 364 20,800 -1,361 Descending New York Center
Thu 07:31:51 AM 40.3744 -72.9833 220° Southwest 305 351 20,000 -390 Descending New York Center
Thu 07:32:53 AM 40.2922 -73.0242 201° Southwest 299 344 20,000  Level New York Center
Thu 07:33:53 AM 40.2122 -73.0678 203° Southwest 310 357 20,000  Level New York Center
Thu 07:34:50 AM 40.1303 -73.1111 202° Southwest 321 369 20,000 -51 Level New York Center
Thu 07:35:51 AM 40.0458 -73.1597 204° Southwest 321 369 19,900 -49 Descending New York Center
Thu 07:36:52 AM 39.9917 -73.2528 233° Southwest 321 369 19,900 49 Level New York Center
Thu 07:37:53 AM 39.9417 -73.3511 236° Southwest 327 376 20,000 50 Climbing New York Center
Thu 07:38:51 AM 39.8831 -73.4625 236° Southwest 333 383 20,000  Level New York Center
Thu 07:39:52 AM 39.8306 -73.5631 236° Southwest 338 389 20,000 -50 Level New York Center
Thu 07:40:52 AM 39.7781 -73.6611 235° Southwest 343 395 19,900 -550 Descending New York Center
Thu 07:41:52 AM 39.7278 -73.7561 235° Southwest 337 388 18,900 -942 Descending New York Center
Thu 07:42:53 AM 39.6881 -73.8408 239° Southwest 326 375 18,000 -930 Descending New York Center
Thu 07:44:14 AM 39.6192 -73.9806 237° Southwest 309 356 16,700 -1,149 Descending Washington Center
Thu 07:45:14 AM 39.5661 -74.0625 230° Southwest 304 350 15,300 -1,444 Descending Washington Center
Thu 07:46:02 AM 39.5303 -74.1278 235° Southwest 278 320 14,100 -1,147 Descending FAA TRACON SMA TRACON (SMA)
Thu 07:46:22 AM 39.5253 -74.1542 256° West 260 299 14,000 -150 Descending FAA TRACON SMA TRACON (SMA)
Thu 07:46:42 AM 39.5258 -74.1828 271° West 253 291 14,000  Level FAA TRACON SMA TRACON (SMA)
Thu 07:47:02 AM 39.5250 -74.2194 268° West 260 299 14,000 -150 Level FAA TRACON SMA TRACON (SMA)
Thu 07:47:22 AM 39.5253 -74.2486 271° West 262 302 13,900 -750 Descending FAA TRACON SMA TRACON (SMA)
Thu 07:47:42 AM 39.5256 -74.2772 271° West 261 300 13,500 -1,500 Descending FAA TRACON SMA TRACON (SMA)
Thu 07:48:02 AM 39.5275 -74.3108 274° West 259 298 12,900 -1,650 Descending FAA TRACON SMA TRACON (SMA)
Thu 07:48:22 AM 39.5267 -74.3411 268° West 257 296 12,400 -1,050 Descending FAA TRACON SMA TRACON (SMA)
Thu 07:48:42 AM 39.5278 -74.3692 273° West 256 295 12,200 -750 Descending FAA TRACON SMA TRACON (SMA)
Thu 07:49:02 AM 39.5289 -74.4047 272° West 256 295 11,900 -750 Descending FAA TRACON SMA TRACON (SMA)
Thu 07:49:22 AM 39.5292 -74.4325 271° West 258 297 11,700 -750 Descending FAA TRACON SMA TRACON (SMA)
Thu 07:49:42 AM 39.5303 -74.4592 273° West 257 296 11,400 -750 Descending FAA TRACON SMA TRACON (SMA)
Thu 07:50:02 AM 39.5294 -74.4969 268° West 254 292 11,200 -750 Descending FAA TRACON SMA TRACON (SMA)
Thu 07:50:22 AM 39.5303 -74.5244 272° West 251 289 10,900 -750 Descending FAA TRACON SMA TRACON (SMA)
Thu 07:50:42 AM 39.5311 -74.5500 272° West 247 284 10,700 -750 Descending FAA TRACON SMA TRACON (SMA)
Thu 07:51:02 AM 39.5322 -74.5833 272° West 244 281 10,400 -750 Descending FAA TRACON SMA TRACON (SMA)
Thu 07:51:22 AM 39.5325 -74.6108 271° West 242 278 10,200 -600 Descending FAA TRACON SMA TRACON (SMA)
Thu 07:51:42 AM 39.5325 -74.6378 270° West 241 277 10,000 -750 Descending FAA TRACON SMA TRACON (SMA)
Thu 07:52:02 AM 39.5331 -74.6708 271° West 240 276 9,700 -750 Descending FAA TRACON SMA TRACON (SMA)
Thu 07:52:22 AM 39.5336 -74.6972 272° West 239 275 9,500 -600 Descending FAA TRACON SMA TRACON (SMA)
Thu 07:52:42 AM 39.5336 -74.7239 270° West 240 276 9,300 -750 Descending FAA TRACON SMA TRACON (SMA)
Thu 07:53:02 AM 39.5356 -74.7522 275° West 237 273 9,000 -450 Descending FAA TRACON SMA TRACON (SMA)
Thu 07:53:22 AM 39.5350 -74.7822 269° West 234 269 9,000  Level FAA TRACON SMA TRACON (SMA)
Thu 07:53:42 AM 39.5353 -74.8081 271° West 233 268 9,000 -300 Level FAA TRACON SMA TRACON (SMA)
Thu 07:54:02 AM 39.5356 -74.8381 271° West 232 267 8,800 -1,050 Descending FAA TRACON SMA TRACON (SMA)
Thu 07:54:22 AM 39.5369 -74.8650 274° West 228 262 8,300 -1,050 Descending FAA TRACON SMA TRACON (SMA)
Thu 07:54:42 AM 39.5486 -74.8858 306° West 245 282 8,100 -439 Descending FAA TRACON SMA TRACON (SMA)
Thu 07:55:03 AM 39.5747 -74.8978 341° North 282 325 8,000 -732 Descending FAA TRACON SMA TRACON (SMA)
Thu 07:55:23 AM 39.6011 -74.9058 347° North 284 327 7,600 -1,231 Descending FAA TRACON SMA TRACON (SMA)
Thu 07:55:42 AM 39.6239 -74.9133 346° North 276 318 7,200 -1,231 Descending FAA TRACON SMA TRACON (SMA)
Thu 07:56:02 AM 39.6506 -74.9231 344° North 269 310 6,800 -1,350 Descending FAA TRACON SMA TRACON (SMA)
Thu 07:56:22 AM 39.6722 -74.9322 342° North 262 302 6,300 -1,200 Descending FAA TRACON SMA TRACON (SMA)
Thu 07:56:42 AM 39.6925 -74.9425 339° North 257 296 6,000 -450 Descending FAA TRACON SMA TRACON (SMA)
Thu 07:57:02 AM 39.7156 -74.9517 343° North 235 270 6,000 -300 Level FAA TRACON SMA TRACON (SMA)
Thu 07:57:22 AM 39.7353 -74.9556 351° North 214 246 5,800 -900 Descending FAA TRACON SMA TRACON (SMA)
Thu 07:57:42 AM 39.7528 -74.9589 352° North 207 238 5,400 -1,350 Descending FAA TRACON SMA TRACON (SMA)
Thu 07:58:02 AM 39.7722 -74.9631 351° North 196 226 4,900 -1,800 Descending FAA TRACON SMA TRACON (SMA)
Thu 07:58:22 AM 39.7900 -74.9675 349° North 195 224 4,200 -1,800 Descending FAA TRACON SMA TRACON (SMA)
Thu 07:58:42 AM 39.8064 -74.9711 350° North 195 224 3,700 -1,650 Descending FAA TRACON SMA TRACON (SMA)
Thu 07:59:02 AM 39.8264 -74.9758 350° North 191 220 3,100 -900 Descending FAA TRACON SMA TRACON (SMA)
Thu 07:59:22 AM 39.8419 -74.9794 350° North 186 214 3,100 -150 Level FAA TRACON SMA TRACON (SMA)
Thu 07:59:42 AM 39.8578 -74.9833 349° North 187 215 3,000 -450 Descending FAA TRACON SMA TRACON (SMA)
Thu 08:00:02 AM 39.8742 -74.9961 329° Northwest 170 196 2,800 -900 Descending FAA TRACON SMA TRACON (SMA)
Thu 08:00:22 AM 39.8864 -75.0069 326° Northwest 164 189 2,400 -1,200 Descending FAA TRACON SMA TRACON (SMA)

Login

Don't have an account? Register now (free) for customized features, flight alerts, and more!